Time;durP1;ratioP1;P1;durP2;ratioP2;P2;SDS_P1;SDS_P2;PMS_P1;PMS_P2;Temp;Humidity;BMP_temperature;BMP_pressure;BME280_temperature;BME280_humidity;BME280_pressure;Samples;Min_cycle;Max_cycle;Signal;HPM_P1;HPM_P2
2023/04/04 00:00:23;;;;;;;13.38;5.88;;;;;;;-144.87;100.00;61487.56;5029151;28;20044;-87
2023/04/04 00:02:50;;;;;;;12.95;5.82;;;;;;;-144.87;100.00;61487.56;5028011;28;20041;-86
2023/04/04 00:05:17;;;;;;;10.68;5.57;;;;;;;-144.87;100.00;61487.56;5013754;28;20526;-86
2023/04/04 00:07:47;;;;;;;9.82;5.35;;;;;;;-144.87;100.00;61487.56;5027443;28;20820;-87
2023/04/04 00:10:13;;;;;;;11.02;5.40;;;;;;;-144.87;100.00;61487.56;5010280;28;20074;-86
2023/04/04 00:12:40;;;;;;;10.80;5.80;;;;;;;-144.87;100.00;61487.56;5029232;28;20061;-88
2023/04/04 00:15:07;;;;;;;12.43;5.90;;;;;;;-144.87;100.00;61487.56;5026367;28;20063;-86
2023/04/04 00:17:33;;;;;;;12.52;6.13;;;;;;;-144.87;100.00;61487.56;5026801;28;20087;-85
2023/04/04 00:20:00;;;;;;;12.02;6.00;;;;;;;-144.87;100.00;61487.56;5028517;28;20059;-86
2023/04/04 00:22:27;;;;;;;14.20;5.68;;;;;;;-144.87;100.00;61487.56;5028665;28;20045;-85
2023/04/04 00:24:53;;;;;;;12.55;5.80;;;;;;;-144.87;100.00;61487.56;5028943;28;20039;-86
2023/04/04 00:27:21;;;;;;;11.27;5.40;;;;;;;-144.87;100.00;61487.56;5022978;28;20804;-87
2023/04/04 00:29:48;;;;;;;12.73;6.25;;;;;;;-144.87;100.00;61487.56;5021939;28;20044;-87
2023/04/04 00:32:15;;;;;;;13.63;6.25;;;;;;;-144.87;100.00;61487.56;5026590;28;20045;-86
2023/04/04 00:34:42;;;;;;;15.43;6.45;;;;;;;-144.87;100.00;61487.56;5012642;28;20033;-87
2023/04/04 00:37:11;;;;;;;8.73;5.13;;;;;;;-144.87;100.00;61487.56;5026692;28;20046;-86
2023/04/04 00:39:39;;;;;;;15.68;6.10;;;;;;;-144.87;100.00;61487.56;5027687;28;20025;-86
2023/04/04 00:42:05;;;;;;;11.77;5.55;;;;;;;-144.87;100.00;61487.56;4996338;28;20037;-87
2023/04/04 00:44:31;;;;;;;9.82;5.90;;;;;;;-144.87;100.00;61487.56;5026681;28;20414;-87
2023/04/04 00:46:58;;;;;;;12.20;5.50;;;;;;;-144.87;100.00;61487.56;5028506;28;20064;-87
2023/04/04 00:49:24;;;;;;;16.17;5.68;;;;;;;-144.87;100.00;61487.56;5009317;28;20502;-88
2023/04/04 00:51:51;;;;;;;19.17;5.70;;;;;;;-144.87;100.00;61487.56;5024545;28;20065;-88
2023/04/04 00:54:17;;;;;;;13.48;5.75;;;;;;;-144.87;100.00;61487.56;5028412;28;20050;-88
2023/04/04 00:56:44;;;;;;;14.25;6.05;;;;;;;-144.87;100.00;61487.56;5028685;28;20403;-89
2023/04/04 00:59:10;;;;;;;18.15;7.75;;;;;;;-144.87;100.00;61487.56;5009864;28;20083;-88
2023/04/04 01:01:37;;;;;;;13.68;5.82;;;;;;;-144.87;100.00;61487.56;5028389;28;20509;-89
2023/04/04 01:04:22;;;;;;;17.52;6.60;;;;;;;-144.87;100.00;61487.56;5011355;28;20426;-89
2023/04/04 01:06:49;;;;;;;12.55;6.13;;;;;;;-144.87;100.00;61487.56;5028614;28;20037;-89
2023/04/04 01:09:16;;;;;;;12.95;7.03;;;;;;;-144.87;100.00;61487.56;4997408;28;20400;-88
2023/04/04 01:11:42;;;;;;;11.30;6.07;;;;;;;-144.87;100.00;61487.56;5025560;28;20037;-89
2023/04/04 01:14:28;;;;;;;13.30;5.88;;;;;;;-144.87;100.00;61487.56;4993866;28;20025;-88
2023/04/04 01:16:55;;;;;;;12.98;6.38;;;;;;;-144.87;100.00;61487.56;5010551;28;20399;-88
2023/04/04 01:19:34;;;;;;;13.68;6.18;;;;;;;-144.87;100.00;61487.56;4994560;28;20114;-86
2023/04/04 01:22:06;;;;;;;9.02;5.47;;;;;;;-144.87;100.00;61487.56;4994733;28;20044;-86
2023/04/04 01:24:34;;;;;;;12.50;5.75;;;;;;;-144.87;100.00;61487.56;5009562;28;20040;-88
2023/04/04 01:27:05;;;;;;;12.52;6.03;;;;;;;-144.87;100.00;61487.56;5003254;28;20041;-87
2023/04/04 01:29:35;;;;;;;15.40;6.85;;;;;;;-144.87;100.00;61487.56;5014274;28;20033;-86
2023/04/04 01:32:12;;;;;;;11.07;5.50;;;;;;;-144.87;100.00;61487.56;5023083;28;20030;-87
2023/04/04 01:34:47;;;;;;;11.45;5.63;;;;;;;-144.87;100.00;61487.56;5026792;28;20029;-88
2023/04/04 01:37:29;;;;;;;15.85;5.85;;;;;;;-144.87;100.00;61487.56;5008065;28;20513;-89
2023/04/04 01:40:12;;;;;;;10.13;5.85;;;;;;;-144.87;100.00;61487.56;5026518;28;20060;-88
2023/04/04 01:42:41;;;;;;;9.05;5.07;;;;;;;-144.87;100.00;61487.56;4995311;28;20167;-87
2023/04/04 01:45:07;;;;;;;14.95;5.95;;;;;;;-144.87;100.00;61487.56;5014027;28;20108;-86
2023/04/04 01:47:39;;;;;;;13.55;6.22;;;;;;;-144.87;100.00;61487.56;5005343;28;20030;-89
2023/04/04 01:50:10;;;;;;;11.52;5.97;;;;;;;-144.87;100.00;61487.56;5009940;28;20029;-88
2023/04/04 01:52:37;;;;;;;13.20;5.97;;;;;;;-144.87;100.00;61487.56;5004972;28;20025;-88
2023/04/04 01:55:04;;;;;;;13.98;5.65;;;;;;;-144.87;100.00;61487.56;5010504;28;20537;-89
2023/04/04 01:57:30;;;;;;;15.20;5.90;;;;;;;-144.87;100.00;61487.56;5007869;28;20044;-89
2023/04/04 01:59:57;;;;;;;13.30;6.28;;;;;;;-144.87;100.00;61487.56;5010913;28;20034;-88
2023/04/04 02:02:23;;;;;;;12.40;6.05;;;;;;;-144.87;100.00;61487.56;5011392;28;20033;-90
2023/04/04 02:04:49;;;;;;;13.27;6.10;;;;;;;-144.87;100.00;61487.56;5012027;28;20166;-89
2023/04/04 02:07:16;;;;;;;12.75;6.30;;;;;;;-144.87;100.00;61487.56;5024481;28;20083;-89
2023/04/04 02:09:44;;;;;;;13.43;6.20;;;;;;;-144.87;100.00;61487.56;5007487;28;20415;-88
2023/04/04 02:12:11;;;;;;;11.82;6.30;;;;;;;-144.87;100.00;61487.56;5009757;28;20041;-88
2023/04/04 02:14:37;;;;;;;12.07;6.38;;;;;;;-144.87;100.00;61487.56;5012935;28;20033;-90
2023/04/04 02:17:05;;;;;;;13.90;7.05;;;;;;;-144.87;100.00;61487.56;5008562;28;20038;-89
2023/04/04 02:19:32;;;;;;;17.88;7.90;;;;;;;-144.87;100.00;61487.56;5010600;28;20131;-89
2023/04/04 02:21:58;;;;;;;14.77;7.75;;;;;;;-144.87;100.00;61487.56;5012084;28;20380;-89
2023/04/04 02:24:25;;;;;;;14.48;6.85;;;;;;;-144.87;100.00;61487.56;5010122;28;20038;-87
2023/04/04 02:26:51;;;;;;;17.83;7.68;;;;;;;-144.87;100.00;61487.56;5029430;28;20418;-91
2023/04/04 02:29:18;;;;;;;11.63;7.22;;;;;;;-144.87;100.00;61487.56;5029237;28;20041;-89
2023/04/04 02:31:44;;;;;;;19.50;7.65;;;;;;;-144.87;100.00;61487.56;5014623;28;20478;-90
2023/04/04 02:34:11;;;;;;;18.15;7.57;;;;;;;-144.87;100.00;61487.56;5009811;28;20042;-89
2023/04/04 02:36:37;;;;;;;14.93;7.43;;;;;;;-144.87;100.00;61487.56;5012128;28;20049;-92
2023/04/04 02:39:04;;;;;;;14.85;8.05;;;;;;;-144.87;100.00;61487.56;5011105;28;20110;-89
2023/04/04 02:41:50;;;;;;;13.15;7.28;;;;;;;-144.87;100.00;61487.56;5010863;28;20216;-90
2023/04/04 02:44:16;;;;;;;17.83;7.93;;;;;;;-144.87;100.00;61487.56;5033169;28;20516;-90
2023/04/04 02:46:43;;;;;;;22.40;9.60;;;;;;;-144.87;100.00;61487.56;5010450;28;20037;-89
2023/04/04 02:49:14;;;;;;;15.82;8.20;;;;;;;-144.87;100.00;61487.56;5015870;28;20029;-90
2023/04/04 02:52:07;;;;;;;15.27;8.45;;;;;;;-144.87;100.00;61487.56;5014284;28;20033;-89
2023/04/04 02:54:37;;;;;;;22.27;8.20;;;;;;;-144.87;100.00;61487.56;5030764;28;20038;-90
2023/04/04 02:57:04;;;;;;;17.58;8.10;;;;;;;-144.87;100.00;61487.56;4999498;28;20436;-90
2023/04/04 02:59:31;;;;;;;20.52;8.77;;;;;;;-144.87;100.00;61487.56;5011328;28;20491;-90
2023/04/04 03:01:58;;;;;;;17.58;8.15;;;;;;;-144.87;100.00;61487.56;5017409;28;20042;-87
2023/04/04 03:04:25;;;;;;;20.17;8.05;;;;;;;-144.87;100.00;61487.56;5029675;28;20102;-91
2023/04/04 03:07:11;;;;;;;15.82;8.27;;;;;;;-144.87;100.00;61487.56;5012634;28;20045;-90
2023/04/04 03:09:38;;;;;;;21.58;8.80;;;;;;;-144.87;100.00;61487.56;5029037;28;20056;-89
2023/04/04 03:12:04;;;;;;;18.48;8.50;;;;;;;-144.87;100.00;61487.56;5029710;28;20041;-90
2023/04/04 03:14:31;;;;;;;15.30;8.98;;;;;;;-144.87;100.00;61487.56;5015717;28;20033;-89
2023/04/04 03:16:58;;;;;;;21.17;8.85;;;;;;;-144.87;100.00;61487.56;5016143;28;20091;-89
2023/04/04 03:19:24;;;;;;;20.35;9.52;;;;;;;-144.87;100.00;61487.56;5000779;28;20037;-89
2023/04/04 03:21:53;;;;;;;20.42;9.13;;;;;;;-144.87;100.00;61487.56;5009231;28;20503;-89
2023/04/04 03:24:19;;;;;;;20.33;10.07;;;;;;;-144.87;100.00;61487.56;5029484;28;20115;-89
2023/04/04 03:26:47;;;;;;;15.13;9.30;;;;;;;-144.87;100.00;61487.56;5011856;28;20131;-89
2023/04/04 03:29:15;;;;;;;18.98;9.23;;;;;;;-144.87;100.00;61487.56;5016261;28;20089;-89
2023/04/04 03:31:43;;;;;;;19.83;9.30;;;;;;;-144.87;100.00;61487.56;5017098;28;20091;-89
2023/04/04 03:34:10;;;;;;;18.38;9.82;;;;;;;-144.87;100.00;61487.56;5031462;28;20029;-88
2023/04/04 03:36:36;;;;;;;22.85;10.10;;;;;;;-144.87;100.00;61487.56;5030651;28;20144;-90
2023/04/04 03:39:03;;;;;;;18.45;9.20;;;;;;;-144.87;100.00;61487.56;5013222;28;20064;-90
2023/04/04 03:41:29;;;;;;;32.53;10.27;;;;;;;-144.87;100.00;61487.56;5031341;28;20043;-89
2023/04/04 03:43:55;;;;;;;22.02;10.98;;;;;;;-144.87;100.00;61487.56;5026901;28;20463;-88
2023/04/04 03:46:24;;;;;;;22.13;10.82;;;;;;;-144.87;100.00;61487.56;5029341;28;20040;-90
2023/04/04 03:48:50;;;;;;;19.77;10.73;;;;;;;-144.87;100.00;61487.56;5014756;28;20037;-90
2023/04/04 03:51:23;;;;;;;22.42;10.57;;;;;;;-144.87;100.00;61487.56;5029553;28;20150;-89
2023/04/04 03:53:50;;;;;;;19.70;10.73;;;;;;;-144.87;100.00;61487.56;5024548;28;20120;-90
2023/04/04 03:56:17;;;;;;;33.00;11.13;;;;;;;-144.87;100.00;61487.56;5030073;28;20037;-90
2023/04/04 03:58:44;;;;;;;26.92;12.15;;;;;;;-144.87;100.00;61487.56;5040480;28;20264;-89
2023/04/04 04:01:15;;;;;;;19.40;10.90;;;;;;;-144.87;100.00;61487.56;5025194;28;20049;-89
2023/04/04 04:03:45;;;;;;;23.80;11.35;;;;;;;-144.87;100.00;61487.56;5028110;28;20033;-89
2023/04/04 04:06:11;;;;;;;23.10;11.98;;;;;;;-144.87;100.00;61487.56;5038076;28;20072;-91
2023/04/04 04:08:39;;;;;;;23.40;11.85;;;;;;;-144.87;100.00;61487.56;5030469;28;20039;-92
2023/04/04 04:11:07;;;;;;;25.10;11.95;;;;;;;-144.87;100.00;61487.56;5035268;28;20034;-89
2023/04/04 04:13:36;;;;;;;27.40;12.90;;;;;;;-144.87;100.00;61487.56;5041407;28;20037;-90
2023/04/04 04:16:05;;;;;;;24.73;12.20;;;;;;;-144.87;100.00;61487.56;5028954;28;20048;-89
2023/04/04 04:18:31;;;;;;;20.98;12.07;;;;;;;-144.87;100.00;61487.56;5005659;28;20029;-90
2023/04/04 04:21:00;;;;;;;28.70;14.13;;;;;;;-144.87;100.00;61487.56;5011662;28;20034;-90
2023/04/04 04:23:28;;;;;;;30.08;12.85;;;;;;;-144.87;100.00;61487.56;5027403;28;20052;-90
2023/04/04 04:25:54;;;;;;;33.08;13.23;;;;;;;-144.87;100.00;61487.56;5011190;28;20038;-91
2023/04/04 04:29:01;;;;;;;27.10;13.65;;;;;;;-144.87;100.00;61487.56;5013252;28;20065;-90
2023/04/04 04:31:30;;;;;;;28.13;12.18;;;;;;;-144.87;100.00;61487.56;5013871;28;20116;-91
2023/04/04 04:33:57;;;;;;;23.83;11.90;;;;;;;-144.87;100.00;61487.56;5011405;28;20033;-90
2023/04/04 04:36:27;;;;;;;28.10;13.23;;;;;;;-144.87;100.00;61487.56;5032756;28;20034;-91
2023/04/04 04:39:30;;;;;;;53.65;14.52;;;;;;;-144.87;100.00;61487.56;5013705;28;20052;-92
2023/04/04 04:42:16;;;;;;;52.00;15.75;;;;;;;-144.87;100.00;61487.56;5019400;28;20042;-91
2023/04/04 04:44:50;;;;;;;37.00;14.23;;;;;;;-144.87;100.00;61487.56;5018921;28;20067;-91
2023/04/04 04:47:16;;;;;;;32.75;13.35;;;;;;;-144.87;100.00;61487.56;5028617;28;20495;-90
2023/04/04 04:49:48;;;;;;;34.20;15.60;;;;;;;-144.87;100.00;61487.56;5000666;28;20037;-90
2023/04/04 04:52:18;;;;;;;40.10;15.15;;;;;;;-144.87;100.00;61487.56;5017300;28;20491;-90
2023/04/04 04:54:44;;;;;;;29.63;15.77;;;;;;;-144.87;100.00;61487.56;5030831;28;20124;-91
2023/04/04 04:57:11;;;;;;;33.97;16.02;;;;;;;-144.87;100.00;61487.56;5030650;28;20116;-91
2023/04/04 05:00:00;;;;;;;32.03;12.93;;;;;;;-144.87;100.00;61487.56;5014089;28;20490;-92
2023/04/04 05:02:27;;;;;;;33.08;16.42;;;;;;;-144.87;100.00;61487.56;5012833;28;20033;-90
2023/04/04 05:04:55;;;;;;;42.03;16.58;;;;;;;-144.87;100.00;61487.56;5009865;28;20038;-89
2023/04/04 05:07:22;;;;;;;72.75;19.23;;;;;;;-144.87;100.00;61487.56;5023648;28;20025;-90
2023/04/04 05:09:49;;;;;;;34.33;16.77;;;;;;;-144.87;100.00;61487.56;5001886;28;20426;-91
2023/04/04 05:12:35;;;;;;;41.83;16.13;;;;;;;-144.87;100.00;61487.56;5046805;28;20596;-90
2023/04/04 05:15:02;;;;;;;30.60;15.77;;;;;;;-144.87;100.00;61487.56;5005397;28;20033;-91
2023/04/04 05:17:28;;;;;;;34.92;17.50;;;;;;;-144.87;100.00;61487.56;5007067;28;20641;-90
2023/04/04 05:23:29;;;;;;;29.60;15.82;;;;;;;-144.87;100.00;61487.56;5015180;28;20069;-89
2023/04/04 05:25:56;;;;;;;31.92;15.27;;;;;;;-144.87;100.00;61487.56;5015681;28;20041;-90
2023/04/04 05:28:25;;;;;;;36.17;15.93;;;;;;;-144.87;100.00;61487.56;5016557;28;20056;-89
2023/04/04 05:30:55;;;;;;;29.63;14.93;;;;;;;-144.87;100.00;61487.56;5017836;28;20494;-89
2023/04/04 05:33:25;;;;;;;26.75;14.82;;;;;;;-144.87;100.00;61487.56;5023961;28;20128;-90
2023/04/04 05:36:49;;;;;;;34.13;16.70;;;;;;;-144.87;100.00;61487.56;5016877;28;20491;-89
2023/04/04 05:39:16;;;;;;;27.00;14.40;;;;;;;-144.87;100.00;61487.56;5034993;28;20077;-89
2023/04/04 05:41:52;;;;;;;27.02;14.50;;;;;;;-144.87;100.00;61487.56;5029580;28;20029;-88
2023/04/04 05:44:20;;;;;;;26.70;14.38;;;;;;;-144.87;100.00;61487.56;5033958;28;20029;-89
2023/04/04 05:46:47;;;;;;;32.70;14.52;;;;;;;-144.87;100.00;61487.56;5013069;28;20132;-88
2023/04/04 05:49:16;;;;;;;27.27;14.50;;;;;;;-144.87;100.00;61487.56;5009972;28;20496;-88
2023/04/04 05:51:55;;;;;;;23.20;12.77;;;;;;;-144.87;100.00;61487.56;5001269;28;20033;-89
2023/04/04 05:54:22;;;;;;;22.70;12.98;;;;;;;-144.87;100.00;61487.56;5008721;28;20367;-89
2023/04/04 05:56:49;;;;;;;25.63;13.13;;;;;;;-144.87;100.00;61487.56;5013208;28;20030;-89
2023/04/04 05:59:25;;;;;;;25.02;12.45;;;;;;;-144.87;100.00;61487.56;5012824;28;20041;-88
2023/04/04 06:02:00;;;;;;;23.02;10.57;;;;;;;-144.87;100.00;61487.56;5013558;28;20453;-88
2023/04/04 06:04:27;;;;;;;18.73;11.45;;;;;;;-144.87;100.00;61487.56;5030772;28;20037;-89
2023/04/04 06:06:56;;;;;;;36.30;11.90;;;;;;;-144.87;100.00;61487.56;5001032;28;20091;-87
2023/04/04 06:09:23;;;;;;;30.85;9.73;;;;;;;-144.87;100.00;61487.56;5013094;28;20372;-87
2023/04/04 06:11:50;;;;;;;14.73;9.10;;;;;;;-144.87;100.00;61487.56;5030762;28;20057;-88
2023/04/04 06:14:17;;;;;;;14.48;8.65;;;;;;;-144.87;100.00;61487.56;5013333;28;20453;-87
2023/04/04 06:16:45;;;;;;;12.05;7.32;;;;;;;-144.87;100.00;61487.56;5027215;28;20025;-86
2023/04/04 06:19:15;;;;;;;14.20;7.38;;;;;;;-144.87;100.00;61487.56;5010226;28;20049;-87
2023/04/04 06:21:42;;;;;;;12.48;6.68;;;;;;;-144.87;100.00;61487.56;5007489;28;20039;-86
2023/04/04 06:24:12;;;;;;;14.43;7.53;;;;;;;-144.87;100.00;61487.56;5020465;28;20037;-85
2023/04/04 06:26:39;;;;;;;12.13;6.55;;;;;;;-144.87;100.00;61487.56;5033538;28;20072;-86
2023/04/04 06:29:05;;;;;;;11.98;6.35;;;;;;;-144.87;100.00;61487.56;4999935;28;20041;-86
2023/04/04 06:31:36;;;;;;;18.50;7.43;;;;;;;-144.87;100.00;61487.56;5015760;28;20121;-85
2023/04/04 06:34:09;;;;;;;22.92;8.48;;;;;;;-144.87;100.00;61487.56;5032032;28;20045;-86
2023/04/04 06:36:49;;;;;;;35.78;8.57;;;;;;;-144.87;100.00;61487.56;5014263;28;20032;-86
2023/04/04 06:39:16;;;;;;;19.05;8.32;;;;;;;-144.87;100.00;61487.56;5015096;28;20462;-87
2023/04/04 06:41:43;;;;;;;13.27;7.15;;;;;;;-144.87;100.00;61487.56;5015293;28;20037;-84
2023/04/04 06:44:11;;;;;;;18.85;8.35;;;;;;;-144.87;100.00;61487.56;5016336;28;20064;-84
2023/04/04 06:46:38;;;;;;;16.90;8.05;;;;;;;-144.87;100.00;61487.56;5033983;28;20037;-85
2023/04/04 06:49:05;;;;;;;15.43;7.80;;;;;;;-144.87;100.00;61487.56;5034603;28;20034;-86
2023/04/04 06:51:35;;;;;;;15.07;8.00;;;;;;;-144.87;100.00;61487.56;4999294;28;20112;-84
2023/04/04 06:54:02;;;;;;;15.45;7.53;;;;;;;-144.87;100.00;61487.56;5016303;28;20033;-85
2023/04/04 06:56:48;;;;;;;14.20;7.88;;;;;;;-144.87;100.00;61487.56;4996507;28;20034;-85
2023/04/04 06:59:14;;;;;;;11.38;7.30;;;;;;;-144.87;100.00;61487.56;5020638;28;20059;-87
2023/04/04 07:01:41;;;;;;;13.23;7.65;;;;;;;-144.87;100.00;61487.56;5014441;28;20502;-87
2023/04/04 07:04:08;;;;;;;13.40;7.38;;;;;;;-144.87;100.00;61487.56;4999822;28;20488;-86
2023/04/04 07:06:34;;;;;;;14.18;6.97;;;;;;;-144.87;100.00;61487.56;4998853;28;20041;-86
2023/04/04 07:09:19;;;;;;;15.02;8.23;;;;;;;-144.87;100.00;61487.56;5030856;28;20077;-86
2023/04/04 07:11:45;;;;;;;14.25;8.30;;;;;;;-144.87;100.00;61487.56;5032328;28;20064;-86
2023/04/04 07:14:13;;;;;;;13.65;8.05;;;;;;;-144.87;100.00;61487.56;5033511;28;20036;-85
2023/04/04 07:16:39;;;;;;;19.42;8.93;;;;;;;-144.87;100.00;61487.56;5032460;28;20041;-85
2023/04/04 07:19:06;;;;;;;12.38;7.70;;;;;;;-144.87;100.00;61487.56;4999339;28;20150;-86
2023/04/04 07:21:32;;;;;;;15.63;8.10;;;;;;;-144.87;100.00;61487.56;5033032;28;20042;-84
2023/04/04 07:24:01;;;;;;;11.50;6.95;;;;;;;-144.87;100.00;61487.56;5032454;28;20068;-85
2023/04/04 07:26:27;;;;;;;15.43;7.75;;;;;;;-144.87;100.00;61487.56;5006885;28;20041;-86
2023/04/04 07:28:53;;;;;;;13.63;7.80;;;;;;;-144.87;100.00;61487.56;5030661;28;20041;-86
2023/04/04 07:31:20;;;;;;;10.88;7.20;;;;;;;-144.87;100.00;61487.56;4998844;28;20443;-87
2023/04/04 07:33:46;;;;;;;13.23;7.50;;;;;;;-144.87;100.00;61487.56;5024014;28;20106;-88
2023/04/04 07:36:17;;;;;;;10.82;7.35;;;;;;;-144.87;100.00;61487.56;5035257;28;20045;-86
2023/04/04 07:38:43;;;;;;;12.45;7.25;;;;;;;-144.87;100.00;61487.56;5038970;28;20032;-85
2023/04/04 07:41:10;;;;;;;12.25;7.18;;;;;;;-144.87;100.00;61487.56;5019928;28;20037;-87
2023/04/04 07:43:37;;;;;;;17.63;7.70;;;;;;;-144.87;100.00;61487.56;5036125;28;20065;-87
2023/04/04 07:46:05;;;;;;;13.82;6.80;;;;;;;-144.87;100.00;61487.56;5042517;28;20104;-87
2023/04/04 07:48:32;;;;;;;12.52;6.80;;;;;;;-144.87;100.00;61487.56;5033669;28;20033;-87
2023/04/04 07:51:03;;;;;;;11.45;6.53;;;;;;;-144.87;100.00;61487.56;5053756;28;20033;-87
2023/04/04 07:53:30;;;;;;;;;;;;;;;-144.87;100.00;61487.56;5050002;28;20343;-85
2023/04/04 07:55:56;;;;;;;13.93;6.40;;;;;;;-144.87;100.00;61487.56;5031016;28;19917;-87
2023/04/04 07:58:43;;;;;;;12.80;6.05;;;;;;;-144.87;100.00;61487.56;5046431;28;20057;-86
2023/04/04 08:01:10;;;;;;;13.48;6.03;;;;;;;-144.87;100.00;61487.56;5053949;28;20033;-87
2023/04/04 08:03:37;;;;;;;18.08;6.28;;;;;;;-144.87;100.00;61487.56;5038287;28;20030;-86
2023/04/04 08:06:06;;;;;;;12.98;5.28;;;;;;;-144.87;100.00;61487.56;5034825;28;20041;-86
2023/04/04 08:08:35;;;;;;;12.35;5.28;;;;;;;-144.87;100.00;61487.56;5050433;28;20033;-87
2023/04/04 08:11:02;;;;;;;14.55;5.30;;;;;;;-144.87;100.00;61487.56;5021834;28;20029;-87
2023/04/04 08:13:29;;;;;;;9.80;5.13;;;;;;;-144.87;100.00;61487.56;5052136;28;20052;-87
2023/04/04 08:15:56;;;;;;;10.95;4.97;;;;;;;-144.87;100.00;61487.56;5043624;28;20045;-87
2023/04/04 08:18:23;;;;;;;8.45;4.57;;;;;;;-144.87;100.00;61487.56;5034517;28;20037;-87
2023/04/04 08:20:50;;;;;;;11.27;5.07;;;;;;;-144.87;100.00;61487.56;5053409;28;20037;-86
2023/04/04 08:23:17;;;;;;;9.52;5.10;;;;;;;-144.87;100.00;61487.56;5057122;28;20068;-87
2023/04/04 08:25:46;;;;;;;12.02;4.97;;;;;;;-144.87;100.00;61487.56;4998049;28;20052;-86
2023/04/04 08:28:15;;;;;;;8.63;4.30;;;;;;;-144.87;100.00;61487.56;5013116;28;20391;-85
2023/04/04 08:30:41;;;;;;;10.23;4.38;;;;;;;-144.87;100.00;61487.56;5032391;28;20033;-85
2023/04/04 08:33:08;;;;;;;8.00;3.90;;;;;;;-144.87;100.00;61487.56;5031781;28;20572;-85
2023/04/04 08:35:34;;;;;;;8.27;5.15;;;;;;;-144.87;100.00;61487.56;4998442;28;20032;-85
2023/04/04 08:38:04;;;;;;;9.70;3.67;;;;;;;-144.87;100.00;61487.56;5034827;28;20033;-84
2023/04/04 08:40:31;;;;;;;12.80;3.33;;;;;;;-144.87;100.00;61487.56;5030850;28;20070;-83
2023/04/04 08:42:58;;;;;;;8.45;2.78;;;;;;;-144.87;100.00;61487.56;5031907;28;20363;-84
2023/04/04 08:45:44;;;;;;;7.57;3.03;;;;;;;-144.87;100.00;61487.56;5030963;28;20442;-83
2023/04/04 08:48:11;;;;;;;5.28;2.72;;;;;;;-144.87;100.00;61487.56;5013732;28;20044;-84
2023/04/04 08:50:40;;;;;;;6.63;2.83;;;;;;;-144.87;100.00;61487.56;5017751;28;20033;-85
2023/04/04 08:53:09;;;;;;;7.50;2.50;;;;;;;-144.87;100.00;61487.56;5030713;28;20041;-84
2023/04/04 08:55:36;;;;;;;6.35;3.03;;;;;;;-144.87;100.00;61487.56;5028139;28;20026;-84
2023/04/04 08:58:02;;;;;;;4.93;2.60;;;;;;;-144.87;100.00;61487.56;5031687;28;20048;-84
2023/04/04 09:00:29;;;;;;;4.60;2.70;;;;;;;-144.87;100.00;61487.56;5014150;28;20116;-84
2023/04/04 09:03:08;;;;;;;9.45;3.20;;;;;;;-144.87;100.00;61487.56;5031362;28;20049;-85
2023/04/04 09:05:35;;;;;;;5.15;3.05;;;;;;;-144.87;100.00;61487.56;5015636;28;20555;-86
2023/04/04 09:08:03;;;;;;;31.58;8.70;;;;;;;-144.87;100.00;61487.56;4997346;28;20029;-84
2023/04/04 09:10:29;;;;;;;7.97;3.63;;;;;;;-144.87;100.00;61487.56;5031114;28;20173;-84
2023/04/04 09:12:56;;;;;;;6.35;3.03;;;;;;;-144.87;100.00;61487.56;5035267;28;20017;-85
2023/04/04 09:15:42;;;;;;;6.38;3.17;;;;;;;-144.87;100.00;61487.56;5013851;28;20131;-85
2023/04/04 09:18:09;;;;;;;11.15;2.70;;;;;;;-144.87;100.00;61487.56;5031773;28;20111;-86
2023/04/04 09:20:46;;;;;;;10.60;3.90;;;;;;;-144.87;100.00;61487.56;5032913;28;20524;-88
2023/04/04 09:23:22;;;;;;;6.97;2.72;;;;;;;-144.87;100.00;61487.56;5033564;28;20055;-89
2023/04/04 09:25:52;;;;;;;7.88;3.30;;;;;;;-144.87;100.00;61487.56;5023909;28;20025;-89
2023/04/04 09:28:20;;;;;;;5.13;3.13;;;;;;;-144.87;100.00;61487.56;5046577;28;20037;-87
2023/04/04 09:30:49;;;;;;;56.70;13.73;;;;;;;-144.87;100.00;61487.56;5044040;28;20064;-89
2023/04/04 09:33:17;;;;;;;9.10;3.50;;;;;;;-144.87;100.00;61487.56;5037361;28;20037;-91
2023/04/04 09:35:51;;;;;;;8.00;3.63;;;;;;;-144.87;100.00;61487.56;5036559;28;20053;-90
2023/04/04 09:38:18;;;;;;;10.60;3.53;;;;;;;-144.87;100.00;61487.56;5016842;28;20501;-88
2023/04/04 09:40:45;;;;;;;8.82;3.75;;;;;;;-144.87;100.00;61487.56;5023270;28;20363;-89
2023/04/04 09:43:12;;;;;;;9.38;4.45;;;;;;;-144.87;100.00;61487.56;5016879;28;20033;-90
2023/04/04 09:45:41;;;;;;;9.10;4.15;;;;;;;-144.87;100.00;61487.56;4999579;28;20120;-89
2023/04/04 09:48:10;;;;;;;9.25;3.63;;;;;;;-144.87;100.00;61487.56;5014157;28;20124;-91
2023/04/04 09:50:44;;;;;;;8.48;3.88;;;;;;;-144.87;100.00;61487.56;4997834;28;20095;-89
2023/04/04 09:53:17;;;;;;;7.35;4.13;;;;;;;-144.87;100.00;61487.56;5024118;28;20045;-90
2023/04/04 09:55:55;;;;;;;8.02;4.05;;;;;;;-144.87;100.00;61487.56;5031255;28;20120;-91
2023/04/04 09:58:26;;;;;;;8.77;3.70;;;;;;;-144.87;100.00;61487.56;5031984;28;20041;-92
2023/04/04 10:01:00;;;;;;;9.13;4.22;;;;;;;-144.87;100.00;61487.56;5031601;28;20191;-89
2023/04/04 10:03:28;;;;;;;6.07;3.47;;;;;;;-144.87;100.00;61487.56;5030942;28;20034;-85
2023/04/04 10:05:59;;;;;;;7.95;4.07;;;;;;;-144.87;100.00;61487.56;5030958;28;20034;-89
2023/04/04 10:08:27;;;;;;;8.82;4.68;;;;;;;-144.87;100.00;61487.56;5023499;28;20038;-90
2023/04/04 10:10:58;;;;;;;10.52;4.00;;;;;;;-144.87;100.00;61487.56;5030327;28;20053;-88
2023/04/04 10:13:27;;;;;;;6.93;3.70;;;;;;;-144.87;100.00;61487.56;5030969;28;20026;-86
2023/04/04 10:16:14;;;;;;;9.85;4.13;;;;;;;-144.87;100.00;61487.56;5030546;28;20061;-88
2023/04/04 10:18:40;;;;;;;9.57;3.67;;;;;;;-144.87;100.00;61487.56;5021003;28;20106;-83
2023/04/04 10:21:08;;;;;;;9.57;4.10;;;;;;;-144.87;100.00;61487.56;5033058;28;20039;-88
2023/04/04 10:23:35;;;;;;;12.18;4.28;;;;;;;-144.87;100.00;61487.56;5031537;28;20037;-88
2023/04/04 10:26:21;;;;;;;7.32;3.53;;;;;;;-144.87;100.00;61487.56;5013682;28;20045;-86
2023/04/04 10:28:49;;;;;;;9.45;4.47;;;;;;;-144.87;100.00;61487.56;5024733;28;20033;-88
2023/04/04 10:31:26;;;;;;;6.78;3.22;;;;;;;-144.87;100.00;61487.56;5031335;28;20095;-87
2023/04/04 10:34:22;;;;;;;9.52;4.18;;;;;;;-144.87;100.00;61487.56;5013262;28;20375;-84
2023/04/04 10:36:56;;;;;;;7.25;3.45;;;;;;;-144.87;100.00;61487.56;5030961;28;20108;-82
2023/04/04 10:39:28;;;;;;;11.30;3.78;;;;;;;-144.87;100.00;61487.56;5029470;28;20168;-87
2023/04/04 10:41:55;;;;;;;7.68;3.70;;;;;;;-144.87;100.00;61487.56;5024111;28;20393;-86
2023/04/04 10:44:38;;;;;;;7.30;3.40;;;;;;;-144.87;100.00;61487.56;5011689;28;20122;-82
2023/04/04 10:47:42;;;;;;;17.00;4.25;;;;;;;-144.87;100.00;61487.56;5027689;28;20072;-84
2023/04/04 10:50:10;;;;;;;8.40;3.42;;;;;;;-144.87;100.00;61487.56;5028058;28;20025;-86
2023/04/04 10:52:44;;;;;;;12.32;4.20;;;;;;;-144.87;100.00;61487.56;5028060;28;20037;-84
2023/04/04 10:55:14;;;;;;;7.28;3.25;;;;;;;-144.87;100.00;61487.56;5013019;28;20045;-87
2023/04/04 10:57:42;;;;;;;7.32;3.67;;;;;;;-144.87;100.00;61487.56;5032727;28;20069;-86
2023/04/04 11:00:11;;;;;;;10.25;4.07;;;;;;;-144.87;100.00;61487.56;5027156;28;20029;-85
2023/04/04 11:02:51;;;;;;;8.02;3.80;;;;;;;-144.87;100.00;61487.56;5034561;28;20056;-85
2023/04/04 11:05:40;;;;;;;7.57;3.83;;;;;;;-144.87;100.00;61487.56;5026129;28;20045;-87
2023/04/04 11:08:44;;;;;;;10.63;3.30;;;;;;;-144.87;100.00;61487.56;5031097;28;20083;-85
2023/04/04 11:11:12;;;;;;;8.15;3.53;;;;;;;-144.87;100.00;61487.56;5030337;28;20076;-85
2023/04/04 11:13:58;;;;;;;10.07;3.65;;;;;;;-144.87;100.00;61487.56;5009881;28;20026;-86
2023/04/04 11:16:25;;;;;;;6.32;3.50;;;;;;;-144.87;100.00;61487.56;5030161;28;20060;-84
2023/04/04 11:18:51;;;;;;;5.38;3.38;;;;;;;-144.87;100.00;61487.56;5006215;28;20040;-85